Time;durP1;ratioP1;P1;durP2;ratioP2;P2;SDS_P1;SDS_P2;PMS_P1;PMS_P2;Temp;Humidity;BMP_temperature;BMP_pressure;BME280_temperature;BME280_humidity;BME280_pressure;Samples;Min_cycle;Max_cycle;Signal;HPM_P1;HPM_P2
2024/02/27 00:02:10;;;;;;;17.57;12.40;;;4.50;99.90;;;;;;5038781;28;20287;-85
2024/02/27 00:04:36;;;;;;;16.50;11.90;;;4.40;99.90;;;;;;5047233;28;20186;-86
2024/02/27 00:07:02;;;;;;;17.40;11.87;;;4.40;99.90;;;;;;5039091;28;20198;-85
2024/02/27 00:09:27;;;;;;;17.43;12.17;;;4.40;99.90;;;;;;5048035;28;20182;-85
2024/02/27 00:11:54;;;;;;;16.43;11.70;;;4.40;99.90;;;;;;5038875;28;20185;-85
2024/02/27 00:14:20;;;;;;;16.10;11.80;;;4.40;99.90;;;;;;5034009;28;20215;-85
2024/02/27 00:16:46;;;;;;;18.13;12.00;;;4.30;99.90;;;;;;5038647;28;20186;-86
2024/02/27 00:19:11;;;;;;;16.47;11.93;;;4.30;99.90;;;;;;5031056;28;20210;-86
2024/02/27 00:21:37;;;;;;;16.40;11.77;;;4.20;99.90;;;;;;5038601;28;20679;-86
2024/02/27 00:24:03;;;;;;;18.63;12.13;;;4.20;99.90;;;;;;5056248;28;20182;-86
2024/02/27 00:26:29;;;;;;;18.10;11.77;;;4.10;99.90;;;;;;5038211;28;20190;-85
2024/02/27 00:28:56;;;;;;;17.17;11.93;;;4.10;99.90;;;;;;5056291;28;20219;-86
2024/02/27 00:31:21;;;;;;;17.50;12.10;;;4.00;99.90;;;;;;5055748;28;20922;-85
2024/02/27 00:33:47;;;;;;;16.53;11.67;;;4.10;99.90;;;;;;5037502;28;20221;-85
2024/02/27 00:36:13;;;;;;;17.07;11.53;;;4.00;99.90;;;;;;5037954;28;20196;-85
2024/02/27 00:38:39;;;;;;;17.00;11.73;;;4.00;99.90;;;;;;5037922;28;20632;-85
2024/02/27 00:41:05;;;;;;;18.00;11.97;;;3.90;99.90;;;;;;5038131;28;20225;-85
2024/02/27 00:43:31;;;;;;;16.07;11.53;;;3.90;99.90;;;;;;5056184;28;20620;-86
2024/02/27 00:45:56;;;;;;;15.50;10.87;;;3.80;99.90;;;;;;5038354;28;20186;-85
2024/02/27 00:48:22;;;;;;;16.67;11.57;;;3.70;99.90;;;;;;5037668;28;20613;-85
2024/02/27 00:50:48;;;;;;;16.50;11.97;;;3.60;99.90;;;;;;5031220;28;20186;-86
2024/02/27 00:53:14;;;;;;;19.23;12.33;;;3.50;99.90;;;;;;5037433;28;20633;-85
2024/02/27 00:55:40;;;;;;;17.60;12.63;;;3.50;99.90;;;;;;5071236;28;20629;-86
2024/02/27 00:58:05;;;;;;;18.43;11.90;;;3.40;99.90;;;;;;5037368;28;20642;-85
2024/02/27 01:00:31;;;;;;;17.33;12.97;;;3.30;99.90;;;;;;5029815;28;20221;-85
2024/02/27 01:02:58;;;;;;;18.40;12.63;;;3.20;99.90;;;;;;5055109;28;20181;-85
2024/02/27 01:05:23;;;;;;;20.20;12.90;;;3.20;99.90;;;;;;5037636;28;20185;-85
2024/02/27 01:07:50;;;;;;;21.03;12.57;;;3.20;99.90;;;;;;5054923;28;20524;-85
2024/02/27 01:10:16;;;;;;;17.73;12.23;;;3.20;99.90;;;;;;5037098;28;20315;-84
2024/02/27 01:12:42;;;;;;;16.13;11.53;;;3.30;99.90;;;;;;5037219;28;20648;-85
2024/02/27 01:15:08;;;;;;;18.47;12.40;;;3.20;99.90;;;;;;5055282;28;20185;-85
2024/02/27 01:17:34;;;;;;;21.30;13.33;;;3.10;99.90;;;;;;5037064;28;20208;-85
2024/02/27 01:20:00;;;;;;;21.70;13.07;;;3.00;99.90;;;;;;5029863;28;20189;-85
2024/02/27 01:22:27;;;;;;;17.73;11.80;;;2.90;99.90;;;;;;5054581;28;20277;-84
2024/02/27 01:24:55;;;;;;;19.87;13.00;;;2.90;99.90;;;;;;5054351;28;20177;-84
2024/02/27 01:27:21;;;;;;;19.30;11.97;;;2.90;99.90;;;;;;5054679;28;20212;-86
2024/02/27 01:29:47;;;;;;;18.50;12.30;;;2.90;99.90;;;;;;5055219;28;20216;-85
2024/02/27 01:32:12;;;;;;;20.90;12.67;;;2.90;99.90;;;;;;5054237;28;20560;-84
2024/02/27 01:34:38;;;;;;;20.50;12.90;;;2.80;99.90;;;;;;5036313;28;20192;-84
2024/02/27 01:37:04;;;;;;;21.23;13.47;;;2.80;99.90;;;;;;5036555;28;20178;-84
2024/02/27 01:39:30;;;;;;;18.83;12.07;;;2.80;99.90;;;;;;5036635;28;20193;-85
2024/02/27 01:41:55;;;;;;;20.67;13.30;;;2.80;99.90;;;;;;5036718;28;20206;-84
2024/02/27 01:44:21;;;;;;;22.80;13.80;;;2.80;99.90;;;;;;5054541;28;20205;-84
2024/02/27 01:46:48;;;;;;;24.63;12.87;;;2.70;99.90;;;;;;5054425;28;20205;-85
2024/02/27 01:49:14;;;;;;;20.20;12.50;;;2.70;99.90;;;;;;5047192;28;20511;-85
2024/02/27 01:51:43;;;;;;;21.97;13.83;;;2.70;99.90;;;;;;5036749;28;20204;-85
2024/02/27 01:54:11;;;;;;;21.07;12.73;;;2.60;99.90;;;;;;5035949;28;20191;-84
2024/02/27 01:56:37;;;;;;;18.90;12.53;;;2.60;99.90;;;;;;5038125;28;20576;-85
2024/02/27 01:59:03;;;;;;;20.67;12.97;;;2.60;99.90;;;;;;5036265;28;20268;-84
2024/02/27 02:01:30;;;;;;;21.30;13.63;;;2.60;99.90;;;;;;5036433;28;20249;-84
2024/02/27 02:03:58;;;;;;;21.27;13.07;;;2.50;99.90;;;;;;5035601;28;20620;-85
2024/02/27 02:06:24;;;;;;;22.17;13.37;;;2.50;99.90;;;;;;5028050;28;20190;-85
2024/02/27 02:08:50;;;;;;;23.63;13.10;;;2.40;99.90;;;;;;5036381;28;20217;-85
2024/02/27 02:11:16;;;;;;;22.77;12.90;;;2.30;99.90;;;;;;5045795;28;20624;-85
2024/02/27 02:13:42;;;;;;;21.50;13.73;;;2.30;99.90;;;;;;5036153;28;20197;-86
2024/02/27 02:16:07;;;;;;;22.67;13.80;;;2.30;99.90;;;;;;5036285;28;20532;-85
2024/02/27 02:21:08;;;;;;;20.33;13.43;;;2.30;99.90;;;;;;5029553;28;20698;-84
2024/02/27 02:23:34;;;;;;;24.00;13.87;;;2.30;99.90;;;;;;5051830;28;20190;-84
2024/02/27 02:26:01;;;;;;;26.73;14.43;;;2.40;99.90;;;;;;5045931;28;20198;-83
2024/02/27 02:28:27;;;;;;;21.37;13.63;;;2.40;99.90;;;;;;5051058;28;20208;-83
2024/02/27 02:30:53;;;;;;;23.93;14.73;;;2.30;99.90;;;;;;5052564;28;20615;-84
2024/02/27 02:33:19;;;;;;;22.87;14.20;;;2.30;99.90;;;;;;5040072;28;20274;-84
2024/02/27 02:35:45;;;;;;;21.87;13.83;;;2.20;99.90;;;;;;5051914;28;20213;-84
2024/02/27 02:38:11;;;;;;;21.77;14.10;;;2.20;99.90;;;;;;5044127;28;20270;-84
2024/02/27 02:40:36;;;;;;;24.57;15.50;;;2.10;99.90;;;;;;5044243;28;20205;-84
2024/02/27 02:43:02;;;;;;;25.53;14.80;;;2.10;99.90;;;;;;5053557;28;20699;-84
2024/02/27 02:45:28;;;;;;;24.07;14.10;;;2.10;99.90;;;;;;5049407;28;20635;-83
2024/02/27 02:47:54;;;;;;;26.90;15.37;;;2.10;99.90;;;;;;5046191;28;20186;-84
2024/02/27 02:50:20;;;;;;;24.70;14.90;;;2.10;99.90;;;;;;5051629;28;20189;-83
2024/02/27 02:52:46;;;;;;;25.47;15.30;;;2.00;99.90;;;;;;5045494;28;20177;-84
2024/02/27 02:55:12;;;;;;;24.30;14.63;;;2.00;99.90;;;;;;5053668;28;20193;-85
2024/02/27 02:57:38;;;;;;;25.10;15.20;;;1.90;99.90;;;;;;5052383;28;20221;-84
2024/02/27 03:00:05;;;;;;;27.43;16.10;;;1.90;99.90;;;;;;5035023;28;20226;-84
2024/02/27 03:02:32;;;;;;;26.87;15.67;;;1.90;99.90;;;;;;5035161;28;20197;-84
2024/02/27 03:04:58;;;;;;;28.67;16.73;;;1.90;99.90;;;;;;5049618;28;20698;-84
2024/02/27 03:07:24;;;;;;;27.70;15.97;;;1.90;99.90;;;;;;5040889;28;20185;-84
2024/02/27 03:09:51;;;;;;;29.30;15.40;;;1.90;99.90;;;;;;5052242;28;20268;-84
2024/02/27 03:12:18;;;;;;;27.70;16.23;;;1.80;99.90;;;;;;5044795;28;20229;-84
2024/02/27 03:14:47;;;;;;;28.93;16.77;;;1.90;99.90;;;;;;5032102;28;20599;-84
2024/02/27 03:17:16;;;;;;;29.70;16.43;;;1.90;99.90;;;;;;5052703;28;20182;-83
2024/02/27 03:19:43;;;;;;;29.57;17.27;;;1.90;99.90;;;;;;5052656;28;20977;-84
2024/02/27 03:22:10;;;;;;;36.13;18.63;;;1.80;99.90;;;;;;5057174;28;20298;-84
2024/02/27 03:24:37;;;;;;;33.83;19.03;;;1.90;99.90;;;;;;5054679;28;20178;-84
2024/02/27 03:27:03;;;;;;;32.37;18.00;;;1.90;99.90;;;;;;5044299;28;20182;-84
2024/02/27 03:29:30;;;;;;;33.93;18.70;;;1.90;99.90;;;;;;5055571;28;20341;-84
2024/02/27 03:32:01;;;;;;;35.57;18.97;;;1.90;99.90;;;;;;5048546;28;20185;-84
2024/02/27 03:34:26;;;;;;;36.30;19.20;;;1.90;99.90;;;;;;5052771;28;20181;-83
2024/02/27 03:36:53;;;;;;;37.73;19.20;;;2.00;99.90;;;;;;5051046;28;20254;-83
2024/02/27 03:39:20;;;;;;;37.90;19.80;;;2.00;99.90;;;;;;5055438;28;20621;-83
2024/02/27 03:41:50;;;;;;;36.43;19.50;;;2.00;99.90;;;;;;5049797;28;20217;-83
2024/02/27 03:44:16;;;;;;;36.67;19.77;;;2.10;99.90;;;;;;5055946;28;20190;-84
2024/02/27 03:46:43;;;;;;;35.43;19.40;;;2.10;99.90;;;;;;5049194;28;20189;-84
2024/02/27 03:49:08;;;;;;;38.77;20.07;;;2.00;99.90;;;;;;5057394;28;20308;-83
2024/02/27 03:51:35;;;;;;;33.30;18.60;;;2.10;99.90;;;;;;5056571;28;20210;-84
2024/02/27 03:54:01;;;;;;;38.67;19.97;;;2.10;99.90;;;;;;5056535;28;20197;-83
2024/02/27 03:56:26;;;;;;;36.67;20.43;;;2.10;99.90;;;;;;5056501;28;20182;-83
2024/02/27 03:58:52;;;;;;;36.63;20.20;;;2.10;99.90;;;;;;5056186;28;20185;-83
2024/02/27 04:01:19;;;;;;;38.23;20.13;;;2.10;99.90;;;;;;5056343;28;20228;-83
2024/02/27 04:03:45;;;;;;;36.63;20.70;;;2.10;99.90;;;;;;5044320;28;20182;-84
2024/02/27 04:06:13;;;;;;;39.87;21.03;;;2.10;99.90;;;;;;5057254;28;20639;-84
2024/02/27 04:08:39;;;;;;;40.70;20.63;;;2.10;99.90;;;;;;5056092;28;20296;-84
2024/02/27 04:11:10;;;;;;;38.83;21.00;;;2.20;99.90;;;;;;5056333;28;20281;-84
2024/02/27 04:13:36;;;;;;;38.57;19.30;;;2.20;99.90;;;;;;5056207;28;20189;-84
2024/02/27 04:16:02;;;;;;;34.13;18.87;;;2.20;99.90;;;;;;5049197;28;20201;-84
2024/02/27 04:18:28;;;;;;;36.23;20.40;;;2.20;99.90;;;;;;5054749;28;20185;-84
2024/02/27 04:20:53;;;;;;;40.23;21.50;;;2.20;99.90;;;;;;5055778;28;20298;-83
2024/02/27 04:23:20;;;;;;;36.33;19.73;;;2.20;99.90;;;;;;5055706;28;20185;-83
2024/02/27 04:25:45;;;;;;;36.37;19.13;;;2.20;99.90;;;;;;5055864;28;20193;-84
2024/02/27 04:28:13;;;;;;;34.63;19.93;;;2.20;99.90;;;;;;5046327;28;20194;-84
2024/02/27 04:30:39;;;;;;;38.27;20.50;;;2.20;99.90;;;;;;5055823;28;20186;-84
2024/02/27 04:33:04;;;;;;;33.87;19.73;;;2.30;99.90;;;;;;5056073;28;20189;-85
2024/02/27 04:35:30;;;;;;;35.40;19.67;;;2.20;99.90;;;;;;5046977;28;20186;-84
2024/02/27 04:37:56;;;;;;;34.93;20.33;;;2.20;99.90;;;;;;5055361;28;20182;-84
2024/02/27 04:40:22;;;;;;;36.27;20.83;;;2.20;99.90;;;;;;5055299;28;20240;-83
2024/02/27 04:42:48;;;;;;;31.77;18.63;;;2.20;99.90;;;;;;5055302;28;20190;-84
2024/02/27 04:45:14;;;;;;;34.90;18.87;;;2.20;99.90;;;;;;5055394;28;20189;-84
2024/02/27 04:47:40;;;;;;;36.43;18.93;;;2.10;99.90;;;;;;5055479;28;20242;-83
2024/02/27 04:50:06;;;;;;;33.77;18.43;;;2.10;99.90;;;;;;5055362;28;20182;-84
2024/02/27 04:52:32;;;;;;;30.63;17.93;;;2.10;99.90;;;;;;5046977;28;20241;-84
2024/02/27 04:54:58;;;;;;;30.33;18.53;;;2.10;99.90;;;;;;5055284;28;20239;-84
2024/02/27 04:57:25;;;;;;;30.33;18.17;;;2.10;99.90;;;;;;5055074;28;20613;-84
2024/02/27 04:59:50;;;;;;;34.40;19.83;;;2.20;99.90;;;;;;5056330;28;20273;-84
2024/02/27 05:02:28;;;;;;;31.77;18.20;;;2.20;99.90;;;;;;5055122;28;20301;-84
2024/02/27 05:04:54;;;;;;;35.60;20.23;;;2.20;99.90;;;;;;5055039;28;20276;-84
2024/02/27 05:07:21;;;;;;;34.03;19.73;;;2.30;99.90;;;;;;5053790;28;20217;-84
2024/02/27 05:09:47;;;;;;;34.63;19.50;;;2.30;99.90;;;;;;5047971;28;20209;-84
2024/02/27 05:12:13;;;;;;;30.43;18.67;;;2.30;99.90;;;;;;5055113;28;20189;-84
2024/02/27 05:14:38;;;;;;;30.50;17.47;;;2.30;99.90;;;;;;5046486;28;20600;-83
2024/02/27 05:17:04;;;;;;;32.40;19.07;;;2.40;99.90;;;;;;5055162;28;20193;-84
2024/02/27 05:19:30;;;;;;;34.47;18.93;;;2.30;99.90;;;;;;5054125;28;20664;-84
2024/02/27 05:21:58;;;;;;;35.33;20.37;;;2.30;99.90;;;;;;5054719;28;20214;-84
2024/02/27 05:24:23;;;;;;;37.90;20.67;;;2.30;99.90;;;;;;5054400;28;20186;-84
2024/02/27 05:26:49;;;;;;;34.30;19.23;;;2.30;99.90;;;;;;5054651;28;20200;-84
2024/02/27 05:29:15;;;;;;;34.70;19.23;;;2.40;99.90;;;;;;5036992;28;20537;-84
2024/02/27 05:31:40;;;;;;;37.00;19.93;;;2.40;99.90;;;;;;5034221;28;20260;-83
2024/02/27 05:34:07;;;;;;;34.33;18.90;;;2.40;99.90;;;;;;5033827;28;20273;-84
2024/02/27 05:36:33;;;;;;;34.87;19.57;;;2.50;99.90;;;;;;5050461;28;20202;-83
2024/02/27 05:38:59;;;;;;;34.47;19.27;;;2.50;99.90;;;;;;5042325;28;20186;-83
2024/02/27 05:41:25;;;;;;;38.53;20.17;;;2.50;99.90;;;;;;5052620;28;20225;-81
2024/02/27 05:43:51;;;;;;;34.30;19.80;;;2.60;99.90;;;;;;5048897;28;20190;-83
2024/02/27 05:46:17;;;;;;;36.30;19.80;;;2.60;99.90;;;;;;5040054;28;20251;-83
2024/02/27 05:48:44;;;;;;;40.07;20.03;;;2.70;99.90;;;;;;5053369;28;20185;-83
2024/02/27 05:51:10;;;;;;;38.10;19.47;;;2.70;99.90;;;;;;5053214;28;20243;-84
2024/02/27 05:53:36;;;;;;;34.83;19.03;;;2.70;99.90;;;;;;5048395;28;20272;-84
2024/02/27 05:56:03;;;;;;;36.40;19.97;;;2.70;99.90;;;;;;5046409;28;20708;-84
2024/02/27 05:58:29;;;;;;;39.53;20.47;;;2.70;99.90;;;;;;5039848;28;20197;-84
2024/02/27 06:00:56;;;;;;;36.17;19.73;;;2.60;99.90;;;;;;5047217;28;20237;-84
2024/02/27 06:03:22;;;;;;;37.00;18.87;;;2.70;99.90;;;;;;5043368;28;20198;-84
2024/02/27 06:05:49;;;;;;;36.87;19.10;;;2.70;99.90;;;;;;5036581;28;20182;-83
2024/02/27 06:08:15;;;;;;;33.93;19.40;;;2.70;99.90;;;;;;5049921;28;20201;-84
2024/02/27 06:10:41;;;;;;;36.27;19.00;;;2.70;99.90;;;;;;5046500;28;20182;-85
2024/02/27 06:13:10;;;;;;;35.17;19.00;;;2.70;99.90;;;;;;5052128;28;20201;-85
2024/02/27 06:15:37;;;;;;;38.97;18.97;;;2.70;99.90;;;;;;5043639;28;20201;-85
2024/02/27 06:18:03;;;;;;;35.27;19.37;;;2.70;99.90;;;;;;5042617;28;20185;-84
2024/02/27 06:23:13;;;;;;;35.43;19.47;;;2.80;99.90;;;;;;5052907;28;20243;-85
2024/02/27 06:25:39;;;;;;;35.87;19.43;;;2.90;99.90;;;;;;5052258;28;20190;-84
2024/02/27 06:28:05;;;;;;;33.80;18.70;;;2.90;99.90;;;;;;5052433;28;20185;-84
2024/02/27 06:30:31;;;;;;;33.73;18.30;;;2.90;99.90;;;;;;5052706;28;20284;-84
2024/02/27 06:32:57;;;;;;;35.50;19.03;;;2.90;99.90;;;;;;5037726;28;20200;-84
2024/02/27 06:35:24;;;;;;;35.17;17.93;;;2.90;99.90;;;;;;5034706;28;20186;-85
2024/02/27 06:37:50;;;;;;;35.10;18.77;;;3.00;99.90;;;;;;5052591;28;20189;-84
2024/02/27 06:40:16;;;;;;;36.13;19.33;;;2.90;99.90;;;;;;5053713;28;20515;-85
2024/02/27 06:42:43;;;;;;;33.27;18.63;;;2.90;99.90;;;;;;5052647;28;20193;-84
2024/02/27 06:45:13;;;;;;;35.63;19.10;;;2.90;99.90;;;;;;5052854;28;20231;-84
2024/02/27 06:47:42;;;;;;;32.97;18.63;;;2.90;99.90;;;;;;5044021;28;20193;-84
2024/02/27 06:50:09;;;;;;;35.27;18.80;;;2.90;99.90;;;;;;5052669;28;20186;-84
2024/02/27 06:52:36;;;;;;;32.83;18.43;;;2.90;99.90;;;;;;5041300;28;20312;-85
2024/02/27 06:55:03;;;;;;;32.53;17.63;;;3.00;99.90;;;;;;5057584;28;20184;-85
2024/02/27 06:57:29;;;;;;;34.57;18.77;;;3.00;99.90;;;;;;5056512;28;20628;-85
2024/02/27 06:59:55;;;;;;;33.10;17.67;;;3.10;99.90;;;;;;5056538;28;20529;-85
2024/02/27 07:02:21;;;;;;;32.90;18.37;;;3.10;99.90;;;;;;5057140;28;20281;-85
2024/02/27 07:04:47;;;;;;;37.87;19.23;;;3.10;99.90;;;;;;5057661;28;20177;-85
2024/02/27 07:07:13;;;;;;;34.87;17.73;;;3.10;99.90;;;;;;5055625;28;20231;-84
2024/02/27 07:09:39;;;;;;;33.90;18.43;;;3.10;99.90;;;;;;5047935;28;20177;-85
2024/02/27 07:12:05;;;;;;;33.53;18.10;;;3.10;99.90;;;;;;5055922;28;20182;-84
2024/02/27 07:14:33;;;;;;;37.13;18.47;;;3.20;99.90;;;;;;5056983;28;20181;-85
2024/02/27 07:16:59;;;;;;;33.10;18.33;;;3.30;99.90;;;;;;5056157;28;20255;-85
2024/02/27 07:19:26;;;;;;;31.37;17.87;;;3.30;99.90;;;;;;5045194;28;20230;-85
2024/02/27 07:21:52;;;;;;;33.67;18.17;;;3.20;99.90;;;;;;5050817;28;20201;-84
2024/02/27 07:24:19;;;;;;;31.63;18.40;;;3.20;99.90;;;;;;5056243;28;20272;-86
2024/02/27 07:26:45;;;;;;;30.77;17.03;;;3.30;99.90;;;;;;5043341;28;20182;-85
2024/02/27 07:29:12;;;;;;;28.63;16.37;;;3.40;99.90;;;;;;5052377;28;20189;-85
2024/02/27 07:31:39;;;;;;;29.43;15.60;;;3.40;99.90;;;;;;5041717;28;20247;-83
2024/02/27 07:34:06;;;;;;;26.97;14.83;;;3.40;99.90;;;;;;5048140;28;20526;-85
2024/02/27 07:36:32;;;;;;;28.83;16.17;;;3.40;99.90;;;;;;5045418;28;20195;-85
2024/02/27 07:38:58;;;;;;;28.80;16.43;;;3.50;99.90;;;;;;5038009;28;20178;-84
2024/02/27 07:41:24;;;;;;;28.17;16.50;;;3.50;99.90;;;;;;5043303;28;20214;-86
2024/02/27 07:43:50;;;;;;;26.40;15.47;;;3.50;99.90;;;;;;5030462;28;20637;-84
2024/02/27 07:46:16;;;;;;;26.37;16.03;;;3.50;99.90;;;;;;5035769;28;20268;-85
2024/02/27 07:48:45;;;;;;;25.83;15.13;;;3.60;99.90;;;;;;5054711;28;20235;-84
2024/02/27 07:51:34;;;;;;;26.47;14.80;;;3.60;99.90;;;;;;5047858;28;20190;-85
2024/02/27 07:54:01;;;;;;;26.60;15.77;;;3.60;99.90;;;;;;5031709;28;20194;-85
2024/02/27 07:56:30;;;;;;;26.30;15.23;;;3.60;99.90;;;;;;5063383;28;20636;-85
2024/02/27 07:58:57;;;;;;;29.30;16.03;;;3.60;99.90;;;;;;5056270;28;20185;-84
2024/02/27 08:01:26;;;;;;;25.70;14.77;;;3.60;99.90;;;;;;5047536;28;20217;-85
2024/02/27 08:03:54;;;;;;;27.00;15.63;;;3.70;99.90;;;;;;5055593;28;20497;-84
2024/02/27 08:06:22;;;;;;;26.00;15.00;;;3.70;99.90;;;;;;5038130;28;20194;-85
2024/02/27 08:08:49;;;;;;;25.13;14.30;;;3.70;99.90;;;;;;5032757;28;20189;-85
2024/02/27 08:11:15;;;;;;;31.10;15.67;;;3.80;99.90;;;;;;5047432;28;20186;-85
2024/02/27 08:13:40;;;;;;;23.67;14.53;;;3.80;99.90;;;;;;5036637;28;20182;-84
2024/02/27 08:16:06;;;;;;;24.87;15.53;;;3.90;99.90;;;;;;5029415;28;20170;-85
2024/02/27 08:18:32;;;;;;;25.47;14.90;;;3.80;99.90;;;;;;5025348;28;20601;-84
2024/02/27 08:20:58;;;;;;;24.03;14.33;;;3.80;99.90;;;;;;5031784;28;20321;-85
2024/02/27 08:23:29;;;;;;;24.93;14.90;;;3.90;99.90;;;;;;5036029;28;20222;-84
2024/02/27 08:25:54;;;;;;;23.33;14.50;;;3.90;99.90;;;;;;5044281;28;20187;-83
2024/02/27 08:28:22;;;;;;;25.33;14.53;;;3.90;99.90;;;;;;5042980;28;20662;-85
2024/02/27 08:30:48;;;;;;;26.10;14.60;;;3.90;99.90;;;;;;5029339;28;20277;-85
2024/02/27 08:33:14;;;;;;;26.30;14.77;;;4.00;99.90;;;;;;5035459;28;20229;-85
2024/02/27 08:35:40;;;;;;;25.43;14.23;;;4.00;99.90;;;;;;5027814;28;20197;-85
2024/02/27 08:38:06;;;;;;;22.30;14.07;;;4.00;99.90;;;;;;5035470;28;20220;-85
2024/02/27 08:40:32;;;;;;;22.40;14.13;;;4.10;99.90;;;;;;5054050;28;20221;-85
2024/02/27 08:42:58;;;;;;;22.83;14.03;;;4.00;99.90;;;;;;5040455;28;20182;-83
2024/02/27 08:45:25;;;;;;;21.20;13.63;;;4.00;99.90;;;;;;5038790;28;20193;-85
2024/02/27 08:47:50;;;;;;;22.00;14.37;;;4.10;99.90;;;;;;5041301;28;20221;-85
2024/02/27 08:50:16;;;;;;;22.10;13.93;;;4.10;99.90;;;;;;5045287;28;20215;-83
2024/02/27 08:52:42;;;;;;;24.17;15.07;;;4.10;99.90;;;;;;5039133;28;20214;-84
2024/02/27 08:55:08;;;;;;;24.67;14.80;;;4.10;99.90;;;;;;5042886;28;20194;-82
2024/02/27 08:57:35;;;;;;;23.87;13.50;;;4.10;99.90;;;;;;5041523;28;20637;-85
2024/02/27 09:00:01;;;;;;;22.10;13.40;;;4.10;99.90;;;;;;5041412;28;20197;-84
2024/02/27 09:02:27;;;;;;;22.73;14.20;;;4.20;99.90;;;;;;5044226;28;20218;-86
2024/02/27 09:04:59;;;;;;;22.43;13.40;;;4.20;99.90;;;;;;5039767;28;20179;-85
2024/02/27 09:07:24;;;;;;;24.10;14.03;;;4.20;99.90;;;;;;5036056;28;20195;-84
2024/02/27 09:09:50;;;;;;;21.60;13.37;;;4.30;99.90;;;;;;5043430;28;20252;-82
2024/02/27 09:12:17;;;;;;;21.70;13.10;;;4.30;99.90;;;;;;5038052;28;20186;-84
2024/02/27 09:14:46;;;;;;;21.70;13.03;;;4.40;99.90;;;;;;5034017;28;20191;-84
2024/02/27 09:17:11;;;;;;;21.37;13.10;;;4.40;99.90;;;;;;5038307;28;20300;-86
2024/02/27 09:19:37;;;;;;;22.87;14.63;;;4.30;99.90;;;;;;5040759;28;20257;-86
2024/02/27 09:22:03;;;;;;;21.90;13.30;;;4.30;99.90;;;;;;5041693;28;20218;-83
2024/02/27 09:24:29;;;;;;;20.23;12.40;;;4.40;99.90;;;;;;5041962;28;20236;-83
2024/02/27 09:26:56;;;;;;;18.27;12.57;;;4.40;99.90;;;;;;5037643;28;20193;-84
2024/02/27 09:29:22;;;;;;;20.60;13.17;;;4.50;99.90;;;;;;5038615;28;20205;-84
2024/02/27 09:31:48;;;;;;;19.60;12.10;;;4.50;99.90;;;;;;5037496;28;20216;-85
2024/02/27 09:34:14;;;;;;;20.47;12.83;;;4.50;99.90;;;;;;5044036;28;20194;-83
2024/02/27 09:36:40;;;;;;;19.77;13.23;;;4.60;99.90;;;;;;5040094;28;20209;-83
2024/02/27 09:39:08;;;;;;;18.97;11.80;;;4.60;99.90;;;;;;5043242;28;20186;-83
2024/02/27 09:41:37;;;;;;;19.03;12.37;;;4.60;99.90;;;;;;5035456;28;20207;-83
2024/02/27 09:44:03;;;;;;;21.03;12.23;;;4.60;99.90;;;;;;5043152;28;20182;-84
2024/02/27 09:46:33;;;;;;;19.37;11.63;;;4.70;99.90;;;;;;5042597;28;20548;-83
2024/02/27 09:49:02;;;;;;;19.10;11.47;;;4.80;99.90;;;;;;5037090;28;20215;-84
2024/02/27 09:51:29;;;;;;;18.17;11.80;;;4.70;99.90;;;;;;5034921;28;20200;-83
2024/02/27 09:53:57;;;;;;;20.30;12.40;;;4.70;99.90;;;;;;5038846;28;20239;-84
2024/02/27 09:56:24;;;;;;;17.97;11.03;;;4.70;99.90;;;;;;5037968;28;20532;-82
2024/02/27 09:58:50;;;;;;;26.07;16.23;;;4.80;99.90;;;;;;5040651;28;20257;-83
2024/02/27 10:01:19;;;;;;;15.60;10.20;;;4.80;99.90;;;;;;5038530;28;20284;-82
2024/02/27 10:03:48;;;;;;;16.90;10.70;;;4.80;99.90;;;;;;5039975;28;20270;-82
2024/02/27 10:06:23;;;;;;;16.13;10.93;;;4.90;99.90;;;;;;5043359;28;20532;-83
2024/02/27 10:08:56;;;;;;;18.07;10.90;;;4.80;99.90;;;;;;5030344;28;20281;-84
2024/02/27 10:11:22;;;;;;;13.57;9.77;;;4.90;99.90;;;;;;5042671;28;20576;-85
2024/02/27 10:13:48;;;;;;;16.83;10.67;;;5.00;99.90;;;;;;5043943;28;20206;-83
2024/02/27 10:16:18;;;;;;;14.80;10.10;;;5.00;99.90;;;;;;5037380;28;20939;-84
2024/02/27 10:18:44;;;;;;;14.57;9.60;;;5.00;99.90;;;;;;5038457;28;20186;-82
2024/02/27 10:21:09;;;;;;;15.23;10.40;;;5.10;99.90;;;;;;5042575;28;20233;-84
2024/02/27 10:23:35;;;;;;;13.60;9.33;;;5.10;99.90;;;;;;5039863;28;20609;-84
2024/02/27 10:26:10;;;;;;;13.83;9.47;;;5.20;99.90;;;;;;5042967;28;20185;-84
2024/02/27 10:28:36;;;;;;;15.60;9.57;;;5.20;99.90;;;;;;5037847;28;20216;-83
2024/02/27 10:31:08;;;;;;;14.10;9.40;;;5.30;99.90;;;;;;5041659;28;20273;-83
2024/02/27 10:33:36;;;;;;;13.43;9.30;;;5.30;99.90;;;;;;5045323;28;20186;-82
2024/02/27 10:36:06;;;;;;;13.93;9.47;;;5.30;99.90;;;;;;5042232;28;20178;-82
2024/02/27 10:38:32;;;;;;;15.47;9.00;;;5.40;99.90;;;;;;5039257;28;20203;-82
2024/02/27 10:40:59;;;;;;;14.73;9.83;;;5.40;99.90;;;;;;5040541;28;20210;-83
2024/02/27 10:43:25;;;;;;;16.53;10.17;;;5.40;99.90;;;;;;5041817;28;20209;-83
2024/02/27 10:45:58;;;;;;;16.87;11.70;;;5.50;99.90;;;;;;5040417;28;20613;-83
2024/02/27 10:48:23;;;;;;;20.63;11.83;;;5.30;99.90;;;;;;5041225;28;20625;-85
2024/02/27 10:50:49;;;;;;;18.30;12.43;;;5.30;99.90;;;;;;5039642;28;20182;-84
2024/02/27 10:53:19;;;;;;;18.93;12.43;;;5.40;99.90;;;;;;5035199;28;20182;-84
2024/02/27 10:55:48;;;;;;;20.23;12.00;;;5.40;99.90;;;;;;5041796;28;20179;-84
2024/02/27 10:58:14;;;;;;;16.97;11.60;;;5.40;99.90;;;;;;5041736;28;20558;-85
2024/02/27 11:00:41;;;;;;;16.37;11.57;;;5.40;99.90;;;;;;5038522;28;20213;-85
2024/02/27 11:03:12;;;;;;;17.87;10.43;;;5.40;99.90;;;;;;5037436;28;20252;-83
2024/02/27 11:05:46;;;;;;;18.57;11.50;;;5.50;99.90;;;;;;5033375;28;20183;-83
2024/02/27 11:08:14;;;;;;;16.17;11.00;;;5.50;99.90;;;;;;5033314;28;20190;-83
2024/02/27 11:10:40;;;;;;;16.23;10.80;;;5.50;99.90;;;;;;5042343;28;20202;-83
2024/02/27 11:13:08;;;;;;;16.10;10.03;;;5.40;99.90;;;;;;5033154;28;20210;-82
2024/02/27 11:15:39;;;;;;;15.47;10.80;;;5.40;99.90;;;;;;5030163;28;20183;-83
2024/02/27 11:18:07;;;;;;;13.47;9.57;;;5.50;99.90;;;;;;5028844;28;20192;-84
2024/02/27 11:20:35;;;;;;;13.10;9.53;;;5.50;99.90;;;;;;5045168;28;20237;-84
2024/02/27 11:23:00;;;;;;;13.47;8.97;;;5.50;99.90;;;;;;5038048;28;20178;-85
2024/02/27 11:25:26;;;;;;;14.20;9.57;;;5.50;99.90;;;;;;5034507;28;20269;-83
2024/02/27 11:27:54;;;;;;;13.87;8.63;;;5.60;99.90;;;;;;5033310;28;20189;-83
2024/02/27 11:30:22;;;;;;;13.73;9.80;;;5.60;99.90;;;;;;5033385;28;20174;-84
2024/02/27 11:32:48;;;;;;;13.70;9.10;;;5.70;99.90;;;;;;5037457;28;20605;-85
2024/02/27 11:35:16;;;;;;;13.80;8.97;;;5.80;99.90;;;;;;5035918;28;20229;-85
2024/02/27 11:37:42;;;;;;;12.43;8.97;;;5.80;99.90;;;;;;5037368;28;20182;-85
2024/02/27 11:40:13;;;;;;;11.67;8.70;;;5.80;99.90;;;;;;5043824;28;20194;-85
2024/02/27 11:42:43;;;;;;;12.73;8.27;;;5.80;99.90;;;;;;5028945;28;20197;-85
2024/02/27 11:45:13;;;;;;;12.67;8.70;;;5.90;99.90;;;;;;5036693;28;20183;-86
2024/02/27 11:47:53;;;;;;;12.13;8.70;;;6.00;99.90;;;;;;5037132;28;20210;-86
2024/02/27 11:50:34;;;;;;;12.57;8.37;;;6.00;99.90;;;;;;5036980;28;20224;-86
2024/02/27 11:53:20;;;;;;;12.13;8.23;;;6.00;99.90;;;;;;5044392;28;20212;-85
2024/02/27 11:55:55;;;;;;;12.37;8.57;;;6.00;99.90;;;;;;5053207;28;20174;-85
2024/02/27 11:58:23;;;;;;;12.03;8.20;;;5.90;99.90;;;;;;5036275;28;20186;-86
2024/02/27 12:00:53;;;;;;;11.87;8.13;;;5.90;99.90;;;;;;5036848;28;20202;-86
2024/02/27 12:03:19;;;;;;;14.53;8.80;;;6.00;99.90;;;;;;5029198;28;20187;-86
2024/02/27 12:05:52;;;;;;;10.27;7.73;;;5.90;99.90;;;;;;5042830;28;20521;-85
2024/02/27 12:08:21;;;;;;;11.13;7.77;;;5.90;99.90;;;;;;5028640;28;20281;-85
2024/02/27 12:10:46;;;;;;;11.53;8.17;;;5.90;99.90;;;;;;5044186;28;20213;-86
2024/02/27 12:13:13;;;;;;;13.10;8.60;;;6.00;99.90;;;;;;5043795;28;20597;-86
2024/02/27 12:15:38;;;;;;;13.20;8.90;;;6.00;99.90;;;;;;5036259;28;20262;-85
2024/02/27 12:18:05;;;;;;;11.00;7.83;;;6.10;99.90;;;;;;5042423;28;20212;-86
2024/02/27 12:20:31;;;;;;;12.37;8.30;;;6.00;99.90;;;;;;5036575;28;20241;-85
2024/02/27 12:22:57;;;;;;;11.87;8.10;;;6.00;99.90;;;;;;5029892;28;20191;-86
2024/02/27 12:25:23;;;;;;;11.93;7.80;;;6.00;99.90;;;;;;5034932;28;20182;-86
2024/02/27 12:27:53;;;;;;;12.53;8.00;;;6.00;99.90;;;;;;5040675;28;20185;-86
2024/02/27 12:30:22;;;;;;;11.70;8.37;;;6.00;99.90;;;;;;5039494;28;20191;-86
2024/02/27 12:32:48;;;;;;;11.87;7.77;;;6.00;99.90;;;;;;5056123;28;20181;-85
2024/02/27 12:35:15;;;;;;;12.07;7.77;;;5.90;99.90;;;;;;5035254;28;20713;-86
2024/02/27 12:37:44;;;;;;;14.80;8.33;;;5.90;99.90;;;;;;5043327;28;20209;-86
2024/02/27 12:40:15;;;;;;;14.00;8.37;;;5.90;99.90;;;;;;5043886;28;20182;-86
2024/02/27 12:42:43;;;;;;;13.67;8.23;;;5.90;99.90;;;;;;5037146;28;20179;-87